Estación Meteorológica Peña el Pijo (Robertgarden) [ 01/30/23 15:42:07 CET ]

Fecha Hora Presion(HPa) Temp (°C) Humedad % Rocio (°C) Viento ( m/s) Direccion Lluvia 1Hora(mm) Lluvia 24H(mm) LLuvia Total(mm)
2012-May-08 01:01:12 1013.900 9.9 67 4.0         158.50
2012-May-08 02:01:14 1013.500 8.8 72 4.0         158.50
2012-May-08 03:03:43 1013.200 8.1 75 3.9         158.50
2012-May-08 04:01:14 1012.900 6.9 78 3.3         158.50
2012-May-08 05:01:14 1012.500 6.4 80 3.2         158.50
2012-May-08 06:01:18 1012.500 6.2 82 3.3         158.50
2012-May-08 07:01:13 1012.400 5.9 84 3.4         158.50
2012-May-08 08:01:14 1012.700 6.3 85 4.0         158.50
2012-May-08 09:01:13 1012.900 13.9 71 8.7         158.50
2012-May-08 10:01:14 1012.700 19.5 49 8.5         158.50
2012-May-08 11:01:19 1012.300 23.2 40 8.9         158.50
2012-May-08 12:01:19 1012.200 24.4 33 7.0         158.50
2012-May-08 13:01:16 1011.800 27.3 29 7.7         158.50
2012-May-08 14:01:16 1011.500 28.4 27 7.4         158.50
2012-May-08 15:01:13 1011.400 26.7 28 6.6         158.50
2012-May-08 16:01:17 1011.100 27.5 28 7.2         158.50
2012-May-08 17:01:18 1011.100 24.6 33 7.2         158.50
2012-May-08 18:01:13 1011.300 23.2 39 8.5         158.50
2012-May-08 19:01:11 1011.400 23.9 37 8.2         158.50
2012-May-08 20:01:17 1011.300 22.2 40 8.0         158.50
2012-May-08 21:01:17 1011.400 20.2 46 8.2         158.50
2012-May-08 22:01:14 1011.900 17.4 56 8.5         158.50
2012-May-08 23:01:16 1012.700 15.6 62 8.4         158.50

Temperatura Máxima:28°    Temperatura Mínima:
Presión Máxima:1013.900 Hpa    Presión Mínima:1011.100 Hpa


Volver